This is the latest recevied weather packets stored in our database for station/object OE-11179. If no packets are shown the sender has not sent any weather packets the latest 10 day(s).
| Time | Temp. | Humidity | Pressure | Rain* | Wind** | Luminosity | Snow |
|---|---|---|---|---|---|---|---|
| 1787673330 | 15.56° C | 90% | - | 1.78 mm | - | - | - |
| 1787672503 | 15.56° C | 90% | - | 1.52 mm | - | - | - |
| 1787672130 | 16.11° C | 88% | - | 1.02 mm | - | - | - |
| 1787671530 | 16.67° C | 82% | - | 0.51 mm | - | - | - |
| 1787670703 | 17.22° C | 76% | - | 0 mm | - | - | - |
| 1787670328 | 17.78° C | 75% | - | 0 mm | - | - | - |
| 1787669730 | 17.78° C | 74% | - | 0 mm | - | - | - |
| 1787668903 | 18.33° C | 72% | - | 0 mm | - | - | - |
| 1787668529 | 18.33° C | 73% | - | 0 mm | - | - | - |
| 1787667929 | 18.33° C | 72% | - | 0 mm | - | - | - |
| 1787667103 | 18.33° C | 73% | - | 0 mm | - | - | - |
| 1787666730 | 18.33° C | 71% | - | 0 mm | - | - | - |
| 1787666130 | 18.89° C | 70% | - | 0 mm | - | - | - |
| 1787665303 | 18.89° C | 68% | - | 0 mm | - | - | - |
| 1787664930 | 19.44° C | 66% | - | 0 mm | - | - | - |
| 1787664330 | 20° C | 66% | - | 0 mm | - | - | - |
| 1787663503 | 19.44° C | 66% | - | 0 mm | - | - | - |
| 1787663130 | 19.44° C | 65% | - | 0 mm | - | - | - |
| 1787662529 | 20° C | 65% | - | 0 mm | - | - | - |
| 1787661702 | 19.44° C | 66% | - | 0 mm | - | - | - |
| 1787661329 | 18.89° C | 67% | - | 0 mm | - | - | - |
| 1787660729 | 19.44° C | 66% | - | 0 mm | - | - | - |
| 1787660141 | 19.44° C | 68% | - | 0 mm | - | - | - |
| 1787659528 | 19.44° C | 68% | - | 0 mm | - | - | - |
| 1787658929 | 19.44° C | 72% | - | 0 mm | - | - | - |
* Rain latest hour (hover to see other rain measurements)
** Current wind speed in m/s (hover to see current wind gust speed)